Angora, NE (69331)

11:26 AM MDT on August 02, 2015 (GMT -0600)
Wayne Rd. | | Change Station
CLOSE
Current Station
Personal Weather Station
Location: Alliance, NE
Elevation: 4091 ft
Nearby Weather Stations

Elev 4091 ft 42.02 °N, 103.05 °W | Updated 1 minute ago

Clear
Clear
87.6 °F
Feels Like 88 °F
N
6.0
Wind Variable Wind from ENE
Gusts 8.0 mph

Today
High -- | Low -- °F
--% Chance of Precip.
Yesterday
High -- | Low -- °F
Precip. -- in
5:46 AM 8:09 PM
Waning Gibbous, 93% visible
Pressure 29.87 in
Visibility 10.0 miles
Clouds Clear
Heat Index 88 °F
Dew Point 63 °F
Humidity 44%
Rainfall 0.00 in
Snow Depth Not available.
UV 9 out of 12
Pollen 7.50 out of 12
Air Quality Not available.
Flu Activity Not available.
METAR KAIA 021653Z AUTO 03005KT 10SM CLR 31/16 A3001 RMK AO2 SLP113 T03060156 $

More Conditions Fewer Conditions

Pressure 29.87 in
Visibility 10.0 miles
Clouds Clear
Heat Index 88 °F
Dew Point 63 °F
Humidity 44%
Rainfall 0.00 in
Snow Depth Not available.
UV 9 out of 12
Pollen 7.50 out of 12
Air Quality Not available.
Flu Activity Not available.
METAR KAIA 021653Z AUTO 03005KT 10SM CLR 31/16 A3001 RMK AO2 SLP113 T03060156 $

More Conditions Fewer Conditions

10-Day Weather Forecast

×

Almanac

Astronomy

Aug. 02, 2015 Rise Set
Actual Time
Civil Twilight
Nautical Twilight
Astronomical Twilight
Moon
Length of Visible Light
Length of Day
Tomorrow will be .
, % of the Moon is Illuminated

Today's Extremes

State Highs State Lows

Community

WunderPhotos

Upload Photos

1,843,319 photos uploaded!

WunderBlogs® & News

Nearby

Air Quality

  Air Quality AQ Index Pollutant
Not available.

Snow Depth

Station Depth Elevation

Earthquake Activity

City Distance Mag. Time & Date
Minimum magnitude displayed is 2.5.

Coastal Water Temperatures

Place Temperature

Stations

Nearby Weather Stations

Station Location Temp. Windchill Dew Point Humidity Wind Precip. Elev Updated Type